createdAt,value
2017-10-14T00:00:29.811Z,11.27
2017-10-14T00:01:29.855Z,11.19
2017-10-14T00:02:29.965Z,11.17
2017-10-14T00:03:30.460Z,11.10
2017-10-14T00:04:29.998Z,11.07
2017-10-14T00:05:30.042Z,11.06
2017-10-14T00:06:30.092Z,11.06
2017-10-14T00:07:30.204Z,11.01
2017-10-14T00:08:30.184Z,10.99
2017-10-14T00:09:30.236Z,10.98
2017-10-14T00:10:30.280Z,11.06
2017-10-14T00:11:30.327Z,11.03
2017-10-14T00:12:30.442Z,11.03
2017-10-14T00:13:30.420Z,10.98
2017-10-14T00:14:30.467Z,10.98
2017-10-14T00:15:30.514Z,10.99
2017-10-14T00:16:30.566Z,10.98
2017-10-14T00:17:30.675Z,10.99
2017-10-14T00:18:30.734Z,11.03
2017-10-14T00:19:32.318Z,10.98
2017-10-14T00:20:30.750Z,10.95
2017-10-14T00:21:30.798Z,10.98
2017-10-14T00:22:30.912Z,10.94
2017-10-14T00:23:30.890Z,10.96
2017-10-14T00:24:30.937Z,10.92
2017-10-14T00:25:30.984Z,10.94
2017-10-14T00:26:31.030Z,10.95
2017-10-14T00:27:31.143Z,10.98
2017-10-14T00:28:31.125Z,10.96
2017-10-14T00:29:31.173Z,10.91
2017-10-14T00:30:31.220Z,10.88
2017-10-14T00:31:31.269Z,10.94
2017-10-14T00:32:31.382Z,10.89
2017-10-14T00:33:31.366Z,10.88
2017-10-14T00:34:31.408Z,10.78
2017-10-14T00:35:31.455Z,10.84
2017-10-14T00:36:31.502Z,10.84
2017-10-14T00:37:31.631Z,10.83
2017-10-14T00:38:31.592Z,10.80
2017-10-14T00:39:31.642Z,10.84
2017-10-14T00:40:31.691Z,10.91
2017-10-14T00:41:31.738Z,10.84
2017-10-14T00:42:31.851Z,10.83
2017-10-14T00:43:31.896Z,10.81
2017-10-14T00:44:31.879Z,10.83
2017-10-14T00:45:31.928Z,10.74
2017-10-14T00:46:31.972Z,10.77
2017-10-14T00:47:32.021Z,10.77
2017-10-14T00:48:32.134Z,10.71
2017-10-14T00:49:32.135Z,10.68
2017-10-14T00:50:32.163Z,10.73
2017-10-14T00:51:32.207Z,10.59
2017-10-14T00:52:32.260Z,10.66
2017-10-14T00:53:32.367Z,10.66
2017-10-14T00:54:32.350Z,10.63
2017-10-14T00:55:32.397Z,10.74
2017-10-14T00:56:32.444Z,10.59
2017-10-14T00:57:32.490Z,10.56
2017-10-14T00:58:32.606Z,10.60
2017-10-14T00:59:32.581Z,10.60
2017-10-14T01:00:32.631Z,10.52
2017-10-14T01:01:32.677Z,10.39
2017-10-14T01:02:32.723Z,10.37
2017-10-14T01:03:32.861Z,10.39
2017-10-14T01:04:32.823Z,10.40
2017-10-14T01:05:32.866Z,10.36
2017-10-14T01:06:32.919Z,10.40
2017-10-14T01:07:32.965Z,10.34
2017-10-14T01:08:33.084Z,10.37
2017-10-14T01:09:33.054Z,10.36
2017-10-14T01:10:33.100Z,10.30
2017-10-14T01:11:33.146Z,10.39
2017-10-14T01:12:33.193Z,10.36
2017-10-14T01:13:33.323Z,10.34
2017-10-14T01:14:33.292Z,10.34
2017-10-14T01:15:33.336Z,10.25
2017-10-14T01:16:33.384Z,10.25
2017-10-14T01:17:33.429Z,10.28
2017-10-14T01:18:33.550Z,10.24
2017-10-14T01:19:33.523Z,10.34
2017-10-14T01:20:33.569Z,10.28
2017-10-14T01:21:33.616Z,10.26
2017-10-14T01:22:33.663Z,10.30
2017-10-14T01:23:33.792Z,10.26
2017-10-14T01:24:33.756Z,10.28
2017-10-14T01:25:33.803Z,10.28
2017-10-14T01:26:33.849Z,10.25
2017-10-14T01:27:33.900Z,10.15
2017-10-14T01:28:34.009Z,10.14
2017-10-14T01:29:34.053Z,10.18
2017-10-14T01:30:34.036Z,10.14
2017-10-14T01:31:34.091Z,10.14
2017-10-14T01:32:34.135Z,10.10
2017-10-14T01:33:34.245Z,10.21
2017-10-14T01:34:34.223Z,10.09
2017-10-14T01:35:34.275Z,10.09
2017-10-14T01:36:34.322Z,10.01
2017-10-14T01:37:34.366Z,10.03
2017-10-14T01:38:34.501Z,10.09
2017-10-14T01:39:34.459Z,10.04
2017-10-14T01:40:34.505Z,10.09
2017-10-14T01:41:34.551Z,10.06
2017-10-14T01:42:34.599Z,10.06
2017-10-14T01:43:34.710Z,10.03
2017-10-14T01:44:34.759Z,9.96
2017-10-14T01:45:34.739Z,9.99
2017-10-14T01:46:34.786Z,10.03
2017-10-14T01:47:34.832Z,10.00
2017-10-14T01:48:34.879Z,9.93
2017-10-14T01:49:34.990Z,9.99
2017-10-14T01:50:34.976Z,9.81
2017-10-14T01:51:35.020Z,9.83
2017-10-14T01:52:35.069Z,9.86
2017-10-14T01:53:35.116Z,9.91
2017-10-14T01:54:35.225Z,9.88
2017-10-14T01:55:35.206Z,9.86
2017-10-14T01:56:35.256Z,9.82
2017-10-14T01:57:35.300Z,9.85
2017-10-14T01:58:35.347Z,9.91
2017-10-14T01:59:35.456Z,9.91
2017-10-14T02:00:35.442Z,9.88
2017-10-14T02:01:35.484Z,9.88
2017-10-14T02:02:35.530Z,9.83
2017-10-14T02:03:35.577Z,9.79
2017-10-14T02:04:35.698Z,9.79
2017-10-14T02:05:35.676Z,9.81
2017-10-14T02:06:35.717Z,9.78
2017-10-14T02:07:35.764Z,9.76
2017-10-14T02:08:35.811Z,9.78
2017-10-14T02:09:35.921Z,9.81
2017-10-14T02:10:35.909Z,9.78
2017-10-14T02:11:35.951Z,9.68
2017-10-14T02:12:35.998Z,9.71
2017-10-14T02:13:36.044Z,9.63
2017-10-14T02:14:36.160Z,9.58
2017-10-14T02:15:36.143Z,9.57
2017-10-14T02:16:36.186Z,9.61
2017-10-14T02:17:36.506Z,9.58
2017-10-14T02:18:36.277Z,9.63
2017-10-14T02:19:36.409Z,9.60
2017-10-14T02:20:36.373Z,9.61
2017-10-14T02:21:36.774Z,9.61
2017-10-14T02:22:36.465Z,9.60
2017-10-14T02:23:36.511Z,9.61
2017-10-14T02:24:36.637Z,9.56
2017-10-14T02:25:36.602Z,9.52
2017-10-14T02:26:36.648Z,9.57
2017-10-14T02:27:36.695Z,9.57
2017-10-14T02:28:36.763Z,9.58
2017-10-14T02:29:36.852Z,9.60
2017-10-14T02:30:36.904Z,9.56
2017-10-14T02:31:36.880Z,9.58
2017-10-14T02:32:36.930Z,9.57
2017-10-14T02:33:36.982Z,9.60
2017-10-14T02:34:37.022Z,9.61
2017-10-14T02:35:37.129Z,9.58
2017-10-14T02:36:37.113Z,9.56
2017-10-14T02:37:37.160Z,9.58
2017-10-14T02:38:37.206Z,9.53
2017-10-14T02:39:37.253Z,9.58
2017-10-14T02:40:37.369Z,9.57
2017-10-14T02:41:37.351Z,9.58
2017-10-14T02:42:37.395Z,9.56
2017-10-14T02:43:37.436Z,9.60
2017-10-14T02:44:37.486Z,9.58
2017-10-14T02:45:37.595Z,9.58
2017-10-14T02:46:37.578Z,9.66
2017-10-14T02:47:37.625Z,9.63
2017-10-14T02:48:37.696Z,9.70
2017-10-14T02:49:37.724Z,9.64
2017-10-14T02:50:37.827Z,9.66
2017-10-14T02:51:37.813Z,9.75
2017-10-14T02:52:37.857Z,9.78
2017-10-14T02:53:37.901Z,9.68
2017-10-14T02:54:37.948Z,9.73
2017-10-14T02:55:38.059Z,9.78
2017-10-14T02:56:38.044Z,9.79
2017-10-14T02:57:38.089Z,9.79
2017-10-14T02:58:38.134Z,9.86
2017-10-14T02:59:38.194Z,9.81
2017-10-14T03:00:38.291Z,9.86
2017-10-14T03:01:38.272Z,9.93
2017-10-14T03:02:38.319Z,9.94
2017-10-14T03:03:38.365Z,10.04
2017-10-14T03:04:38.415Z,9.97
2017-10-14T03:05:38.522Z,10.01
2017-10-14T03:06:38.505Z,10.15
2017-10-14T03:07:38.552Z,10.17
2017-10-14T03:08:38.609Z,10.14
2017-10-14T03:09:38.645Z,10.22
2017-10-14T03:10:38.756Z,10.28
2017-10-14T03:11:38.738Z,10.33
2017-10-14T03:12:38.786Z,10.34
2017-10-14T03:13:38.832Z,10.39
2017-10-14T03:14:38.883Z,10.44
2017-10-14T03:15:38.989Z,10.42
2017-10-14T03:16:38.972Z,10.44
2017-10-14T03:17:39.019Z,10.47
2017-10-14T03:18:39.067Z,10.53
2017-10-14T03:19:39.120Z,10.53
2017-10-14T03:20:39.223Z,10.66
2017-10-14T03:21:39.206Z,10.58
2017-10-14T03:22:39.253Z,10.63
2017-10-14T03:23:39.300Z,10.60
2017-10-14T03:24:39.346Z,10.63
2017-10-14T03:25:39.477Z,10.68
2017-10-14T03:26:39.439Z,10.68
2017-10-14T03:27:39.486Z,10.77
2017-10-14T03:28:39.536Z,10.70
2017-10-14T03:29:39.580Z,10.71
2017-10-14T03:30:39.713Z,10.84
2017-10-14T03:31:39.677Z,10.71
2017-10-14T03:32:39.722Z,10.77
2017-10-14T03:33:39.769Z,10.83
2017-10-14T03:34:39.816Z,10.89
2017-10-14T03:35:39.930Z,10.92
2017-10-14T03:36:39.916Z,10.94
2017-10-14T03:37:39.955Z,10.99
2017-10-14T03:38:40.006Z,10.95
2017-10-14T03:39:40.049Z,10.98
2017-10-14T03:40:40.175Z,10.98
2017-10-14T03:41:40.145Z,11.09
2017-10-14T03:42:40.195Z,11.13
2017-10-14T03:43:40.238Z,11.07
2017-10-14T03:44:40.301Z,11.06
2017-10-14T03:45:40.398Z,11.17
2017-10-14T03:46:40.450Z,11.13
2017-10-14T03:47:40.428Z,11.14
2017-10-14T03:48:40.475Z,11.24
2017-10-14T03:49:40.524Z,11.21
2017-10-14T03:50:40.570Z,11.25
2017-10-14T03:51:40.681Z,11.21
2017-10-14T03:52:40.664Z,11.25
2017-10-14T03:53:40.710Z,11.24
2017-10-14T03:54:40.757Z,11.31
2017-10-14T03:55:40.804Z,11.31
2017-10-14T03:56:40.917Z,11.31
2017-10-14T03:57:40.897Z,11.35
2017-10-14T03:58:40.947Z,11.34
2017-10-14T03:59:40.996Z,11.35
2017-10-14T04:00:41.040Z,11.34
2017-10-14T04:01:41.150Z,11.41
2017-10-14T04:02:41.139Z,11.46
2017-10-14T04:03:41.183Z,11.39
2017-10-14T04:04:41.232Z,11.49
2017-10-14T04:05:41.277Z,11.50
2017-10-14T04:06:41.409Z,11.39
2017-10-14T04:07:41.373Z,11.53
2017-10-14T04:08:41.419Z,11.49
2017-10-14T04:09:41.466Z,11.50
2017-10-14T04:10:41.512Z,11.56
2017-10-14T04:11:41.643Z,11.53
2017-10-14T04:12:41.608Z,11.54
2017-10-14T04:13:41.655Z,11.49
2017-10-14T04:14:41.702Z,11.53
2017-10-14T04:15:41.751Z,11.61
2017-10-14T04:16:41.880Z,11.59
2017-10-14T04:17:41.850Z,11.62
2017-10-14T04:18:41.894Z,11.57
2017-10-14T04:19:41.941Z,11.57
2017-10-14T04:20:41.987Z,11.56
2017-10-14T04:21:42.111Z,11.64
2017-10-14T04:22:42.081Z,11.67
2017-10-14T04:23:42.130Z,11.59
2017-10-14T04:24:42.177Z,11.56
2017-10-14T04:25:42.226Z,11.53
2017-10-14T04:26:42.334Z,11.62
2017-10-14T04:27:42.383Z,11.61
2017-10-14T04:28:42.369Z,11.54
2017-10-14T04:29:42.413Z,11.61
2017-10-14T04:30:42.460Z,11.62
2017-10-14T04:31:42.514Z,11.70
2017-10-14T04:32:42.623Z,11.68
2017-10-14T04:33:42.602Z,11.62
2017-10-14T04:34:42.654Z,11.68
2017-10-14T04:35:42.698Z,11.71
2017-10-14T04:36:42.748Z,11.71
2017-10-14T04:37:42.855Z,11.68
2017-10-14T04:38:42.840Z,11.75
2017-10-14T04:39:42.888Z,11.77
2017-10-14T04:40:42.937Z,11.75
2017-10-14T04:41:42.981Z,11.72
2017-10-14T04:42:43.114Z,11.78
2017-10-14T04:43:43.088Z,11.82
2017-10-14T04:44:43.123Z,11.82
2017-10-14T04:45:45.856Z,11.75
2017-10-14T04:46:44.194Z,11.83
2017-10-14T04:47:43.333Z,11.82
2017-10-14T04:48:43.383Z,11.86
2017-10-14T04:49:43.360Z,11.87
2017-10-14T04:50:43.410Z,11.89
2017-10-14T04:51:43.456Z,11.82
2017-10-14T04:52:43.502Z,11.87
2017-10-14T04:53:43.619Z,11.87
2017-10-14T04:54:43.599Z,11.94
2017-10-14T04:55:43.653Z,11.86
2017-10-14T04:56:43.692Z,11.90
2017-10-14T04:57:43.741Z,11.97
2017-10-14T04:58:43.857Z,11.94
2017-10-14T04:59:43.835Z,11.93
2017-10-14T05:00:43.882Z,11.94
2017-10-14T05:01:43.929Z,11.96
2017-10-14T05:02:43.978Z,11.94
2017-10-14T05:03:44.094Z,11.93
2017-10-14T05:04:44.074Z,11.83
2017-10-14T05:05:44.121Z,11.86
2017-10-14T05:06:44.169Z,11.93
2017-10-14T05:07:44.218Z,11.93
2017-10-14T05:08:44.330Z,11.97
2017-10-14T05:09:44.310Z,11.87
2017-10-14T05:10:44.364Z,11.94
2017-10-14T05:11:44.404Z,11.86
2017-10-14T05:12:44.453Z,11.89
2017-10-14T05:13:44.582Z,11.83
2017-10-14T05:14:44.547Z,11.89
2017-10-14T05:15:44.595Z,11.87
2017-10-14T05:16:44.642Z,11.90
2017-10-14T05:17:44.691Z,11.83
2017-10-14T05:18:44.802Z,11.89
2017-10-14T05:19:44.849Z,11.83
2017-10-14T05:20:44.834Z,11.97
2017-10-14T05:21:44.879Z,11.94
2017-10-14T05:22:44.928Z,11.85
2017-10-14T05:23:44.975Z,11.87
2017-10-14T05:24:45.090Z,11.97
2017-10-14T05:25:45.072Z,11.93
2017-10-14T05:26:45.117Z,11.86
2017-10-14T05:27:45.164Z,11.94
2017-10-14T05:28:45.216Z,11.94
2017-10-14T05:29:45.324Z,11.90
2017-10-14T05:30:45.307Z,11.89
2017-10-14T05:31:45.359Z,11.94
2017-10-14T05:32:45.408Z,11.96
2017-10-14T05:33:45.451Z,11.97
2017-10-14T05:34:45.562Z,11.97
2017-10-14T05:35:45.545Z,11.94
2017-10-14T05:36:45.595Z,11.94
2017-10-14T05:37:45.642Z,11.77
2017-10-14T05:38:45.688Z,11.78
2017-10-14T05:39:45.815Z,11.83
2017-10-14T05:40:45.785Z,11.82
2017-10-14T05:41:45.831Z,11.86
2017-10-14T05:42:45.878Z,11.86
2017-10-14T05:43:45.930Z,11.86
2017-10-14T05:44:46.040Z,11.87
2017-10-14T05:45:46.023Z,11.90
2017-10-14T05:46:46.070Z,11.89
2017-10-14T05:47:46.129Z,11.97
2017-10-14T05:48:46.166Z,12.04
2017-10-14T05:49:46.292Z,11.86
2017-10-14T05:50:46.262Z,11.89
2017-10-14T05:51:46.307Z,12.02
2017-10-14T05:52:46.355Z,11.99
2017-10-14T05:53:46.401Z,11.94
2017-10-14T05:54:46.536Z,12.05
2017-10-14T05:55:46.496Z,12.01
2017-10-14T05:56:46.547Z,12.06
2017-10-14T05:57:46.591Z,12.11
2017-10-14T05:58:46.638Z,12.09
2017-10-14T05:59:46.773Z,12.08
2017-10-14T06:00:46.734Z,12.09
2017-10-14T06:01:46.785Z,12.12
2017-10-14T06:02:46.830Z,12.11
2017-10-14T06:03:46.878Z,12.15
2017-10-14T06:04:46.999Z,12.09
2017-10-14T06:05:46.970Z,12.08
2017-10-14T06:06:47.128Z,12.09
2017-10-14T06:07:47.067Z,12.05
2017-10-14T06:08:47.113Z,12.05
2017-10-14T06:09:47.226Z,12.01
2017-10-14T06:10:47.272Z,12.01
2017-10-14T06:11:47.258Z,11.96
2017-10-14T06:12:47.308Z,11.97
2017-10-14T06:13:47.354Z,11.96
2017-10-14T06:14:47.398Z,11.99
2017-10-14T06:15:47.514Z,11.97
2017-10-14T06:16:47.504Z,11.99
2017-10-14T06:17:47.544Z,12.01
2017-10-14T06:18:47.587Z,12.05
2017-10-14T06:19:47.640Z,12.01
2017-10-14T06:20:47.751Z,12.09
2017-10-14T06:21:47.730Z,12.06
2017-10-14T06:22:47.780Z,12.12
2017-10-14T06:23:47.826Z,12.16
2017-10-14T06:24:47.876Z,12.15
2017-10-14T06:25:47.987Z,12.27
2017-10-14T06:26:47.972Z,12.24
2017-10-14T06:27:48.021Z,12.39
2017-10-14T06:28:48.068Z,12.42
2017-10-14T06:29:48.112Z,12.44
2017-10-14T06:30:48.228Z,12.38
2017-10-14T06:31:48.210Z,12.46
2017-10-14T06:32:48.261Z,12.49
2017-10-14T06:33:48.307Z,12.44
2017-10-14T06:34:48.353Z,12.51
2017-10-14T06:35:48.476Z,12.56
2017-10-14T06:36:48.454Z,12.56
2017-10-14T06:37:48.493Z,12.57
2017-10-14T06:38:48.544Z,12.70
2017-10-14T06:39:48.590Z,12.71
2017-10-14T06:40:48.721Z,12.71
2017-10-14T06:41:48.685Z,12.64
2017-10-14T06:42:48.732Z,12.64
2017-10-14T06:43:48.787Z,12.71
2017-10-14T06:44:48.831Z,12.69
2017-10-14T06:45:48.941Z,12.74
2017-10-14T06:46:48.988Z,12.77
2017-10-14T06:47:48.971Z,12.93
2017-10-14T06:48:49.020Z,12.78
2017-10-14T06:49:49.081Z,12.81
2017-10-14T06:50:49.202Z,13.03
2017-10-14T06:51:49.995Z,12.95
2017-10-14T06:52:49.212Z,12.92
2017-10-14T06:53:49.266Z,12.96
2017-10-14T06:54:49.311Z,12.97
2017-10-14T06:55:49.426Z,12.95
2017-10-14T06:56:49.470Z,12.97
2017-10-14T06:57:49.454Z,12.93
2017-10-14T06:58:49.497Z,13.04
2017-10-14T06:59:49.550Z,13.15
2017-10-14T07:00:49.599Z,13.15
2017-10-14T07:01:49.707Z,13.38
2017-10-14T07:02:49.689Z,13.43
2017-10-14T07:03:49.739Z,13.52
2017-10-14T07:04:49.791Z,13.91
2017-10-14T07:05:49.835Z,13.96
2017-10-14T07:06:49.945Z,13.91
2017-10-14T07:07:49.930Z,14.01
2017-10-14T07:08:49.982Z,14.02
2017-10-14T07:09:50.030Z,13.89
2017-10-14T07:10:50.077Z,13.96
2017-10-14T07:11:50.186Z,13.95
2017-10-14T07:12:50.172Z,13.94
2017-10-14T07:13:50.220Z,13.96
2017-10-14T07:14:50.274Z,13.95
2017-10-14T07:15:50.317Z,13.96
2017-10-14T07:16:50.431Z,13.87
2017-10-14T07:17:50.416Z,13.77
2017-10-14T07:18:50.463Z,13.77
2017-10-14T07:19:50.513Z,13.81
2017-10-14T07:20:50.561Z,13.87
2017-10-14T07:21:50.670Z,13.88
2017-10-14T07:22:50.656Z,13.92
2017-10-14T07:23:50.707Z,13.96
2017-10-14T07:24:50.754Z,13.98
2017-10-14T07:25:50.803Z,13.81
2017-10-14T07:26:50.932Z,13.77
2017-10-14T07:27:50.899Z,13.79
2017-10-14T07:28:50.949Z,13.79
2017-10-14T07:29:50.995Z,13.83
2017-10-14T07:30:51.042Z,13.96
2017-10-14T07:31:51.173Z,14.09
2017-10-14T07:32:51.140Z,13.95
2017-10-14T07:33:51.194Z,13.80
2017-10-14T07:34:51.240Z,13.81
2017-10-14T07:35:51.290Z,13.77
2017-10-14T07:36:51.398Z,13.87
2017-10-14T07:37:51.445Z,13.87
2017-10-14T07:38:51.431Z,13.89
2017-10-14T07:39:51.481Z,13.96
2017-10-14T07:40:51.533Z,13.99
2017-10-14T07:41:51.576Z,13.87
2017-10-14T07:42:51.690Z,13.81
2017-10-14T07:43:51.677Z,13.84
2017-10-14T07:44:51.722Z,13.79
2017-10-14T07:45:51.777Z,13.79
2017-10-14T07:46:51.821Z,13.81
2017-10-14T07:47:51.933Z,13.71
2017-10-14T07:48:51.916Z,13.70
2017-10-14T07:49:51.966Z,13.71
2017-10-14T07:50:52.016Z,13.69
2017-10-14T07:51:52.062Z,13.65
2017-10-14T07:52:52.180Z,13.62
2017-10-14T07:53:52.161Z,13.63
2017-10-14T07:54:52.210Z,13.59
2017-10-14T07:55:52.257Z,13.58
2017-10-14T07:56:52.314Z,13.67
2017-10-14T07:57:52.422Z,13.65
2017-10-14T07:58:52.402Z,13.58
2017-10-14T07:59:52.451Z,13.61
2017-10-14T08:00:52.504Z,13.55
2017-10-14T08:01:52.553Z,13.61
2017-10-14T08:02:52.660Z,13.74
2017-10-14T08:03:52.650Z,13.74
2017-10-14T08:04:52.695Z,13.92
2017-10-14T08:05:52.745Z,14.02
2017-10-14T08:06:52.797Z,14.21
2017-10-14T08:07:52.904Z,14.42
2017-10-14T08:08:52.888Z,14.49
2017-10-14T08:09:52.938Z,14.52
2017-10-14T08:10:52.993Z,14.64
2017-10-14T08:11:53.038Z,14.52
2017-10-14T08:12:53.148Z,14.42
2017-10-14T08:13:53.131Z,14.27
2017-10-14T08:14:53.186Z,14.20
2017-10-14T08:15:53.233Z,14.25
2017-10-14T08:16:53.288Z,14.19
2017-10-14T08:17:53.390Z,14.31
2017-10-14T08:18:53.376Z,14.42
2017-10-14T08:19:53.424Z,14.35
2017-10-14T08:20:53.475Z,14.29
2017-10-14T08:21:53.520Z,14.28
2017-10-14T08:22:53.647Z,14.28
2017-10-14T08:23:53.619Z,14.28
2017-10-14T08:24:53.669Z,14.43
2017-10-14T08:25:53.720Z,14.54
2017-10-14T08:26:53.770Z,14.61
2017-10-14T08:27:53.880Z,14.81
2017-10-14T08:28:53.932Z,15.48
2017-10-14T08:29:53.913Z,16.22
2017-10-14T08:30:53.962Z,16.00
2017-10-14T08:31:54.011Z,15.68
2017-10-14T08:32:54.065Z,15.60
2017-10-14T08:33:54.176Z,15.51
2017-10-14T08:34:54.159Z,15.56
2017-10-14T08:35:54.214Z,15.52
2017-10-14T08:36:54.262Z,16.00
2017-10-14T08:37:54.308Z,16.56
2017-10-14T08:38:54.426Z,17.32
2017-10-14T08:39:54.409Z,17.92
2017-10-14T08:40:54.463Z,18.25
2017-10-14T08:41:54.505Z,18.55
2017-10-14T08:42:54.562Z,17.88
2017-10-14T08:43:54.670Z,17.43
2017-10-14T08:44:54.660Z,17.69
2017-10-14T08:45:54.710Z,18.25
2017-10-14T08:46:54.759Z,17.97
2017-10-14T08:47:54.811Z,17.59
2017-10-14T08:48:55.097Z,17.08
2017-10-14T08:49:54.911Z,17.36
2017-10-14T08:50:54.959Z,17.57
2017-10-14T08:51:55.016Z,17.78
2017-10-14T08:52:55.061Z,18.22
2017-10-14T08:53:55.198Z,18.07
2017-10-14T08:54:55.168Z,18.57
2017-10-14T08:55:55.214Z,18.64
2017-10-14T08:56:55.269Z,18.57
2017-10-14T08:57:55.321Z,17.73
2017-10-14T08:58:55.452Z,17.36
2017-10-14T08:59:55.418Z,17.03
2017-10-14T09:00:55.474Z,17.11
2017-10-14T09:01:55.523Z,17.50
2017-10-14T09:02:55.580Z,17.85
2017-10-14T09:03:55.694Z,18.39
2017-10-14T09:04:55.743Z,18.77
2017-10-14T09:05:55.736Z,19.25
2017-10-14T09:06:55.787Z,19.08
2017-10-14T09:07:55.836Z,19.11
2017-10-14T09:08:55.889Z,19.40
2017-10-14T09:09:56.020Z,18.99
2017-10-14T09:10:55.991Z,19.31
2017-10-14T09:11:56.043Z,19.15
2017-10-14T09:12:56.095Z,19.32
2017-10-14T09:13:56.150Z,18.47
2017-10-14T09:14:56.266Z,17.70
2017-10-14T09:15:56.257Z,17.22
2017-10-14T09:16:56.309Z,16.90
2017-10-14T09:17:56.361Z,16.68
2017-10-14T09:18:56.413Z,17.04
2017-10-14T09:19:56.531Z,17.25
2017-10-14T09:20:56.519Z,17.63
2017-10-14T09:21:56.574Z,17.32
2017-10-14T09:22:56.623Z,17.18
2017-10-14T09:23:56.678Z,16.85
2017-10-14T09:24:56.801Z,16.35
2017-10-14T09:25:56.782Z,16.09
2017-10-14T09:26:56.836Z,16.67
2017-10-14T09:27:56.891Z,17.07
2017-10-14T09:28:56.940Z,17.54
2017-10-14T09:29:57.056Z,17.33
2017-10-14T09:30:57.044Z,16.89
2017-10-14T09:31:57.096Z,17.00
2017-10-14T09:32:57.151Z,17.00
2017-10-14T09:33:57.201Z,16.90
2017-10-14T09:34:57.322Z,16.96
2017-10-14T09:35:57.313Z,17.04
2017-10-14T09:36:57.359Z,17.18
2017-10-14T09:37:57.418Z,17.63
2017-10-14T09:38:57.466Z,17.50
2017-10-14T09:39:57.584Z,17.62
2017-10-14T09:40:57.573Z,17.97
2017-10-14T09:41:57.624Z,17.82
2017-10-14T09:42:57.679Z,17.54
2017-10-14T09:43:57.728Z,17.14
2017-10-14T09:44:57.852Z,16.67
2017-10-14T09:45:57.835Z,17.03
2017-10-14T09:46:57.887Z,17.55
2017-10-14T09:47:57.941Z,17.62
2017-10-14T09:48:57.996Z,17.25
2017-10-14T09:49:58.133Z,17.11
2017-10-14T09:50:58.101Z,17.04
2017-10-14T09:51:58.152Z,17.18
2017-10-14T09:52:58.204Z,17.51
2017-10-14T09:53:58.259Z,17.89
2017-10-14T09:54:58.375Z,17.89
2017-10-14T09:55:58.432Z,17.87
2017-10-14T09:56:58.418Z,18.15
2017-10-14T09:57:58.472Z,18.55
2017-10-14T09:58:58.526Z,18.87
2017-10-14T09:59:58.576Z,18.70
2017-10-14T10:00:58.692Z,19.06
2017-10-14T10:01:58.681Z,18.92
2017-10-14T10:02:58.737Z,17.28
2017-10-14T10:03:58.794Z,16.83
2017-10-14T10:04:58.844Z,16.92
2017-10-14T10:05:58.971Z,17.20
2017-10-14T10:06:58.955Z,17.88
2017-10-14T10:07:59.008Z,17.94
2017-10-14T10:09:00.041Z,18.36
2017-10-14T10:09:59.109Z,18.17
2017-10-14T10:10:59.227Z,18.22
2017-10-14T10:12:00.188Z,17.87
2017-10-14T10:12:59.271Z,17.03
2017-10-14T10:13:59.328Z,16.90
2017-10-14T10:14:59.379Z,16.50
2017-10-14T10:15:59.499Z,16.41
2017-10-14T10:16:59.484Z,16.95
2017-10-14T10:17:59.538Z,17.07
2017-10-14T10:18:59.591Z,17.06
2017-10-14T10:19:59.642Z,16.89
2017-10-14T10:20:59.764Z,17.15
2017-10-14T10:21:59.749Z,16.70
2017-10-14T10:22:59.804Z,16.81
2017-10-14T10:23:59.860Z,16.85
2017-10-14T10:24:59.910Z,16.74
2017-10-14T10:26:00.031Z,16.92
2017-10-14T10:27:00.015Z,16.99
2017-10-14T10:28:00.071Z,17.47
2017-10-14T10:29:00.121Z,17.66
2017-10-14T10:30:00.173Z,17.03
2017-10-14T10:31:00.289Z,16.83
2017-10-14T10:32:00.280Z,16.77
2017-10-14T10:33:00.329Z,16.75
2017-10-14T10:34:00.381Z,16.93
2017-10-14T10:35:00.435Z,17.07
2017-10-14T10:36:00.625Z,17.15
2017-10-14T10:37:00.542Z,16.56
2017-10-14T10:38:00.601Z,16.75
2017-10-14T10:39:00.646Z,17.08
2017-10-14T10:40:00.699Z,16.93
2017-10-14T10:41:00.816Z,16.88
2017-10-14T10:42:00.805Z,16.92
2017-10-14T10:43:00.862Z,16.78
2017-10-14T10:44:00.913Z,16.52
2017-10-14T10:45:00.963Z,16.50
2017-10-14T10:46:01.076Z,16.30
2017-10-14T10:47:01.070Z,16.67
2017-10-14T10:48:01.117Z,16.68
2017-10-14T10:49:01.169Z,16.96
2017-10-14T10:50:01.220Z,16.93
2017-10-14T10:51:01.360Z,17.04
2017-10-14T10:52:01.330Z,17.11
2017-10-14T10:53:01.379Z,16.96
2017-10-14T10:54:01.434Z,16.70
2017-10-14T10:55:01.483Z,16.56
2017-10-14T10:56:01.618Z,16.44
2017-10-14T10:57:01.588Z,16.71
2017-10-14T10:58:01.639Z,16.65
2017-10-14T10:59:01.693Z,17.07
2017-10-14T11:00:01.746Z,16.88
2017-10-14T11:01:01.885Z,16.35
2017-10-14T11:02:01.852Z,16.41
2017-10-14T11:03:01.902Z,16.74
2017-10-14T11:04:01.956Z,16.85
2017-10-14T11:05:02.011Z,16.96
2017-10-14T11:06:02.148Z,16.90
2017-10-14T11:07:02.110Z,16.95
2017-10-14T11:08:02.168Z,16.93
2017-10-14T11:09:02.217Z,16.90
2017-10-14T11:10:02.278Z,17.06
2017-10-14T11:11:02.384Z,17.06
2017-10-14T11:12:02.439Z,17.26
2017-10-14T11:13:02.424Z,17.13
2017-10-14T11:14:02.479Z,17.22
2017-10-14T11:15:02.528Z,17.07
2017-10-14T11:16:02.581Z,17.08
2017-10-14T11:17:02.696Z,17.11
2017-10-14T11:18:02.687Z,17.33
2017-10-14T11:19:02.737Z,17.46
2017-10-14T11:20:02.800Z,17.67
2017-10-14T11:21:02.845Z,17.70
2017-10-14T11:22:02.964Z,17.91
2017-10-14T11:23:02.949Z,18.00
2017-10-14T11:24:03.004Z,17.74
2017-10-14T11:25:03.051Z,17.84
2017-10-14T11:26:03.103Z,17.79
2017-10-14T11:27:03.221Z,17.43
2017-10-14T11:28:03.216Z,17.20
2017-10-14T11:29:03.264Z,16.92
2017-10-14T11:30:03.316Z,17.03
2017-10-14T11:31:03.372Z,17.22
2017-10-14T11:32:03.502Z,17.11
2017-10-14T11:33:03.477Z,17.32
2017-10-14T11:34:03.527Z,17.36
2017-10-14T11:35:03.581Z,17.33
2017-10-14T11:36:03.631Z,17.38
2017-10-14T11:37:03.762Z,17.85
2017-10-14T11:38:03.740Z,17.85
2017-10-14T11:39:03.789Z,17.74
2017-10-14T11:40:03.844Z,17.84
2017-10-14T11:41:03.896Z,17.82
2017-10-14T11:42:04.035Z,17.40
2017-10-14T11:43:04.002Z,17.25
2017-10-14T11:44:04.055Z,17.03
2017-10-14T11:45:04.110Z,17.06
2017-10-14T11:46:04.161Z,16.92
2017-10-14T11:47:04.296Z,16.83
2017-10-14T11:48:04.268Z,16.92
2017-10-14T11:49:04.322Z,17.28
2017-10-14T11:50:04.372Z,17.55
2017-10-14T11:51:04.434Z,18.06
2017-10-14T11:52:04.564Z,18.09
2017-10-14T11:53:04.533Z,18.25
2017-10-14T11:54:04.599Z,17.85
2017-10-14T11:55:04.640Z,17.74
2017-10-14T11:56:04.694Z,17.26
2017-10-14T11:57:04.829Z,17.28
2017-10-14T11:58:04.798Z,17.51
2017-10-14T11:59:04.856Z,17.22
2017-10-14T12:00:04.905Z,16.89
2017-10-14T12:01:04.962Z,16.62
2017-10-14T12:02:05.075Z,16.38
2017-10-14T12:03:05.129Z,16.27
2017-10-14T12:04:05.120Z,16.40
2017-10-14T12:05:05.176Z,16.52
2017-10-14T12:06:05.225Z,17.07
2017-10-14T12:07:05.282Z,17.08
2017-10-14T12:08:05.398Z,17.26
2017-10-14T12:09:05.389Z,17.29
2017-10-14T12:10:05.446Z,17.38
2017-10-14T12:11:05.490Z,17.00
2017-10-14T12:12:05.545Z,17.23
2017-10-14T12:13:05.706Z,17.28
2017-10-14T12:14:05.652Z,17.07
2017-10-14T12:15:05.706Z,16.59
2017-10-14T12:16:05.757Z,17.06
2017-10-14T12:17:05.813Z,17.13
2017-10-14T12:18:05.931Z,16.98
2017-10-14T12:19:05.919Z,16.90
2017-10-14T12:20:05.976Z,16.65
2017-10-14T12:21:06.032Z,16.59
2017-10-14T12:22:06.081Z,16.31
2017-10-14T12:23:06.215Z,16.15
2017-10-14T12:24:06.187Z,16.18
2017-10-14T12:25:06.240Z,16.55
2017-10-14T12:26:06.291Z,16.96
2017-10-14T12:27:06.347Z,16.88
2017-10-14T12:28:06.485Z,16.88
2017-10-14T12:29:06.452Z,17.15
2017-10-14T12:30:06.506Z,17.20
2017-10-14T12:31:06.560Z,16.68
2017-10-14T12:32:06.614Z,16.34
2017-10-14T12:33:06.752Z,16.16
2017-10-14T12:34:06.720Z,16.15
2017-10-14T12:35:06.776Z,16.42
2017-10-14T12:36:06.831Z,16.78
2017-10-14T12:37:06.882Z,16.88
2017-10-14T12:38:07.000Z,17.25
2017-10-14T12:39:07.052Z,17.64
2017-10-14T12:40:07.044Z,17.81
2017-10-14T12:41:07.100Z,17.66
2017-10-14T12:42:07.149Z,17.44
2017-10-14T12:43:07.206Z,17.40
2017-10-14T12:44:07.325Z,17.23
2017-10-14T12:45:07.316Z,17.13
2017-10-14T12:46:07.365Z,17.10
2017-10-14T12:47:07.417Z,17.06
2017-10-14T12:48:07.472Z,17.00
2017-10-14T12:49:07.588Z,17.15
2017-10-14T12:50:07.579Z,17.22
2017-10-14T12:51:07.637Z,17.47
2017-10-14T12:52:07.682Z,17.50
2017-10-14T12:53:07.740Z,17.43
2017-10-14T12:54:07.868Z,17.41
2017-10-14T12:55:07.838Z,16.95
2017-10-14T12:56:07.893Z,16.53